createdAt,value
2022-10-17T00:00:16.739Z,2.60
2022-10-17T00:02:48.537Z,2.43
2022-10-17T00:05:20.344Z,2.67
2022-10-17T00:07:53.286Z,2.50
2022-10-17T00:10:25.106Z,2.80
2022-10-17T00:12:56.857Z,2.77
2022-10-17T00:15:28.593Z,2.80
2022-10-17T00:18:00.433Z,3.40
2022-10-17T00:20:35.610Z,2.60
2022-10-17T00:23:07.340Z,3.10
2022-10-17T00:25:40.531Z,2.97
2022-10-17T00:28:13.425Z,2.80
2022-10-17T00:30:45.508Z,2.80
2022-10-17T00:33:17.321Z,3.03
2022-10-17T00:35:49.026Z,2.70
2022-10-17T00:38:20.744Z,3.57
2022-10-17T00:40:52.730Z,3.20
2022-10-17T00:43:24.740Z,2.87
2022-10-17T00:45:57.264Z,3.00
2022-10-17T00:48:29.024Z,3.00
2022-10-17T00:51:00.922Z,3.20
2022-10-17T00:53:35.402Z,2.93
2022-10-17T00:56:07.350Z,3.47
2022-10-17T00:58:39.383Z,3.50
2022-10-17T01:01:11.388Z,3.10
2022-10-17T01:03:43.603Z,3.00
2022-10-17T01:06:15.563Z,2.90
2022-10-17T01:08:48.039Z,3.30
2022-10-17T01:11:42.068Z,2.90
2022-10-17T01:14:40.600Z,2.80
2022-10-17T01:17:34.776Z,3.00
2022-10-17T01:20:35.064Z,3.17
2022-10-17T01:23:36.989Z,2.83
2022-10-17T01:26:27.950Z,2.73
2022-10-17T01:29:15.919Z,3.07
2022-10-17T01:31:58.223Z,2.37
2022-10-17T01:34:41.376Z,2.60
2022-10-17T01:37:28.109Z,2.73
2022-10-17T01:40:05.721Z,3.23
2022-10-17T01:43:00.563Z,3.50
2022-10-17T01:45:40.867Z,3.10
2022-10-17T01:48:23.247Z,2.77
2022-10-17T01:51:01.734Z,2.70
2022-10-17T01:54:07.177Z,2.50
2022-10-17T01:56:42.542Z,2.73
2022-10-17T01:59:29.240Z,2.90
2022-10-17T02:02:02.123Z,3.00
2022-10-17T02:04:35.935Z,3.87
2022-10-17T02:07:11.383Z,3.03
2022-10-17T02:09:43.520Z,3.20
2022-10-17T02:12:33.889Z,3.30
2022-10-17T02:15:25.737Z,2.53
2022-10-17T02:18:16.107Z,2.83
2022-10-17T02:21:03.879Z,2.43
2022-10-17T02:23:48.452Z,2.37
2022-10-17T02:26:33.706Z,2.03
2022-10-17T02:29:14.573Z,2.20
2022-10-17T02:32:08.498Z,2.37
2022-10-17T02:34:45.942Z,2.80
2022-10-17T02:37:23.228Z,2.70
2022-10-17T02:39:57.638Z,2.10
2022-10-17T02:42:30.356Z,2.27
2022-10-17T02:45:03.533Z,2.60
2022-10-17T02:47:43.487Z,3.23
2022-10-17T02:50:15.606Z,2.40
2022-10-17T02:52:55.471Z,2.40
2022-10-17T02:55:50.485Z,2.13
2022-10-17T02:58:26.853Z,2.27
2022-10-17T03:01:00.304Z,2.70
2022-10-17T03:03:32.987Z,2.53
2022-10-17T03:06:06.689Z,2.60
2022-10-17T03:11:15.784Z,1.90
2022-10-17T03:13:47.511Z,2.37
2022-10-17T03:16:19.263Z,3.57
2022-10-17T03:18:51.104Z,2.67
2022-10-17T03:21:22.900Z,3.13
2022-10-17T03:23:54.656Z,2.40
2022-10-17T03:26:29.432Z,2.40
2022-10-17T03:29:02.080Z,2.20
2022-10-17T03:31:34.876Z,2.10
2022-10-17T03:34:07.479Z,2.77
2022-10-17T03:36:39.305Z,1.90
2022-10-17T03:39:11.251Z,2.20
2022-10-17T03:41:42.995Z,2.60
2022-10-17T03:44:14.861Z,2.60
2022-10-17T03:46:46.675Z,2.87
2022-10-17T03:49:18.463Z,2.30
2022-10-17T03:51:50.279Z,2.80
2022-10-17T03:54:23.312Z,2.50
2022-10-17T03:56:58.382Z,2.30
2022-10-17T03:59:30.635Z,2.07
2022-10-17T04:02:10.632Z,2.30
2022-10-17T04:04:42.340Z,1.90
2022-10-17T04:07:14.192Z,2.10
2022-10-17T04:09:49.067Z,2.00
2022-10-17T04:12:24.238Z,2.20
2022-10-17T04:14:55.972Z,2.23
2022-10-17T04:17:31.543Z,2.33
2022-10-17T04:20:07.062Z,2.57
2022-10-17T04:22:39.200Z,3.13
2022-10-17T04:25:11.150Z,2.83
2022-10-17T04:27:46.497Z,2.80
2022-10-17T04:30:18.751Z,2.60
2022-10-17T04:32:50.905Z,2.97
2022-10-17T04:35:25.920Z,2.60
2022-10-17T04:38:05.486Z,2.47
2022-10-17T04:40:37.188Z,2.73
2022-10-17T04:43:09.437Z,2.77
2022-10-17T04:45:42.196Z,2.97
2022-10-17T04:48:14.942Z,2.43
2022-10-17T04:50:58.949Z,2.63
2022-10-17T04:53:43.945Z,2.83
2022-10-17T04:56:21.938Z,2.20
2022-10-17T04:58:53.727Z,3.63
2022-10-17T05:01:26.611Z,3.03
2022-10-17T05:03:58.696Z,3.87
2022-10-17T05:06:31.473Z,3.30
2022-10-17T05:09:21.475Z,3.83
2022-10-17T05:11:53.478Z,2.87
2022-10-17T05:14:25.348Z,3.70
2022-10-17T05:16:57.212Z,3.10
2022-10-17T05:19:29.577Z,4.17
2022-10-17T05:22:01.375Z,3.87
2022-10-17T05:24:33.868Z,3.30
2022-10-17T05:27:05.636Z,3.73
2022-10-17T05:29:37.557Z,3.63
2022-10-17T05:32:18.061Z,3.73
2022-10-17T05:34:49.814Z,3.83
2022-10-17T05:37:21.989Z,2.90
2022-10-17T05:39:56.696Z,2.80
2022-10-17T05:42:29.634Z,2.90
2022-10-17T05:45:02.497Z,3.00
2022-10-17T05:47:35.075Z,3.00
2022-10-17T05:50:08.408Z,3.17
2022-10-17T05:52:55.665Z,3.27
2022-10-17T05:55:27.797Z,3.00
2022-10-17T05:58:03.465Z,3.00
2022-10-17T06:00:40.425Z,3.03
2022-10-17T06:03:12.512Z,2.97
2022-10-17T06:05:44.208Z,2.90
2022-10-17T06:08:16.893Z,3.47
2022-10-17T06:10:50.280Z,2.80
2022-10-17T06:13:22.052Z,2.47
2022-10-17T06:15:56.517Z,2.33
2022-10-17T06:18:29.164Z,2.97
2022-10-17T06:21:06.008Z,2.83
2022-10-17T06:23:39.071Z,3.20
2022-10-17T06:26:19.104Z,2.57
2022-10-17T06:28:50.996Z,2.67
2022-10-17T06:31:23.644Z,2.70
2022-10-17T06:33:55.651Z,2.73
2022-10-17T06:36:27.699Z,2.67
2022-10-17T06:38:59.710Z,2.77
2022-10-17T06:41:45.590Z,2.50
2022-10-17T06:44:17.890Z,2.60
2022-10-17T06:47:21.743Z,2.13
2022-10-17T06:49:54.676Z,2.33
2022-10-17T06:52:35.087Z,2.57
2022-10-17T06:55:35.928Z,2.43
2022-10-17T06:58:33.172Z,2.53
2022-10-17T07:01:13.754Z,2.33
2022-10-17T07:03:48.895Z,2.10
2022-10-17T07:06:20.844Z,2.23
2022-10-17T07:08:53.020Z,2.23
2022-10-17T07:11:25.812Z,2.23
2022-10-17T07:13:57.638Z,2.47
2022-10-17T07:16:29.655Z,2.20
2022-10-17T07:19:10.713Z,2.20
2022-10-17T07:21:44.138Z,2.10
2022-10-17T07:24:16.985Z,2.50
2022-10-17T07:26:53.194Z,2.60
2022-10-17T07:29:25.185Z,2.10
2022-10-17T07:32:06.430Z,2.37
2022-10-17T07:34:38.791Z,2.80
2022-10-17T07:37:11.888Z,3.13
2022-10-17T07:39:46.492Z,3.90
2022-10-17T07:42:18.460Z,6.17
2022-10-17T07:44:51.074Z,5.30
2022-10-17T07:47:23.276Z,4.47
2022-10-17T07:49:55.448Z,4.80
2022-10-17T07:52:27.441Z,4.53
2022-10-17T07:54:59.901Z,4.20
2022-10-17T07:57:31.629Z,3.43
2022-10-17T08:00:03.746Z,3.97
2022-10-17T08:02:44.227Z,4.83
2022-10-17T08:05:16.029Z,7.17
2022-10-17T08:07:47.912Z,7.70
2022-10-17T08:10:19.713Z,7.67
2022-10-17T08:12:51.406Z,7.07
2022-10-17T08:15:26.785Z,8.17
2022-10-17T08:18:02.630Z,8.30
2022-10-17T08:20:34.677Z,8.13
2022-10-17T08:23:06.400Z,8.10
2022-10-17T08:25:39.692Z,8.43
2022-10-17T08:28:11.405Z,8.50
2022-10-17T08:30:43.232Z,10.20
2022-10-17T08:33:14.939Z,8.97
2022-10-17T08:35:46.639Z,9.40
2022-10-17T08:38:20.998Z,8.77
2022-10-17T08:40:55.802Z,8.33
2022-10-17T08:43:56.179Z,8.87
2022-10-17T08:46:32.515Z,8.60
2022-10-17T08:49:12.089Z,9.47
2022-10-17T08:52:07.378Z,9.67
2022-10-17T08:54:43.063Z,8.67
2022-10-17T08:57:16.988Z,9.20
2022-10-17T08:59:53.720Z,10.67
2022-10-17T09:02:48.245Z,8.63
2022-10-17T09:05:26.687Z,9.77
2022-10-17T09:08:32.020Z,9.30
2022-10-17T09:11:17.727Z,10.20
2022-10-17T09:14:21.964Z,11.00
2022-10-17T09:16:53.638Z,12.30
2022-10-17T09:19:36.326Z,12.03
2022-10-17T09:22:24.824Z,10.33
2022-10-17T09:25:03.428Z,10.03
2022-10-17T09:27:55.216Z,12.03
2022-10-17T09:30:47.261Z,12.00
2022-10-17T09:33:35.045Z,10.67
2022-10-17T09:36:21.561Z,11.17
2022-10-17T09:38:56.338Z,10.77
2022-10-17T09:41:47.414Z,10.53
2022-10-17T09:44:21.698Z,10.63
2022-10-17T09:47:11.255Z,9.73
2022-10-17T09:49:45.536Z,9.97
2022-10-17T09:52:36.390Z,11.00
2022-10-17T09:55:25.442Z,11.07
2022-10-17T09:57:58.758Z,11.53
2022-10-17T10:00:42.777Z,10.30
2022-10-17T10:03:19.181Z,10.37
2022-10-17T10:06:00.313Z,10.67
2022-10-17T10:08:36.494Z,9.70
2022-10-17T10:11:13.493Z,9.23
2022-10-17T10:13:47.769Z,9.70
2022-10-17T10:16:31.394Z,10.53
2022-10-17T10:19:21.741Z,9.20
2022-10-17T10:21:58.618Z,10.60
2022-10-17T10:24:31.358Z,10.07
2022-10-17T10:27:04.788Z,9.10
2022-10-17T10:29:42.777Z,9.27
2022-10-17T10:32:21.952Z,8.83
2022-10-17T10:34:57.490Z,9.27
2022-10-17T10:37:35.604Z,9.13
2022-10-17T10:40:31.571Z,8.57
2022-10-17T10:43:05.811Z,8.90
2022-10-17T10:45:52.823Z,9.43
2022-10-17T10:48:34.871Z,8.73
2022-10-17T10:51:16.324Z,8.47
2022-10-17T10:54:01.536Z,9.37
2022-10-17T10:56:43.748Z,10.30
2022-10-17T10:59:23.253Z,10.13
2022-10-17T11:02:10.907Z,9.57
2022-10-17T11:04:48.277Z,9.70
2022-10-17T11:07:36.137Z,9.43
2022-10-17T11:10:21.576Z,8.73
2022-10-17T11:12:58.084Z,8.53
2022-10-17T11:15:48.461Z,8.50
2022-10-17T11:19:01.482Z,7.43
2022-10-17T11:21:37.057Z,8.20
2022-10-17T11:24:25.328Z,7.30
2022-10-17T11:27:01.211Z,7.30
2022-10-17T11:29:36.576Z,8.07
2022-10-17T11:32:16.804Z,8.47
2022-10-17T11:35:00.364Z,8.73
2022-10-17T11:37:40.255Z,7.17
2022-10-17T11:40:23.626Z,7.97
2022-10-17T11:43:14.829Z,6.30
2022-10-17T11:45:55.928Z,6.63
2022-10-17T11:48:40.909Z,6.83
2022-10-17T11:54:24.748Z,6.13
2022-10-17T11:57:15.034Z,6.33
2022-10-17T12:00:00.744Z,5.83
2022-10-17T12:02:56.515Z,6.27
2022-10-17T12:05:44.604Z,6.43
2022-10-17T12:08:39.253Z,6.07
2022-10-17T12:11:37.387Z,5.87
2022-10-17T12:14:39.443Z,6.13
2022-10-17T12:17:38.797Z,6.40
2022-10-17T12:20:23.579Z,6.27
2022-10-17T12:23:04.373Z,6.43
2022-10-17T12:26:03.074Z,6.30
2022-10-17T12:28:47.713Z,5.97
2022-10-17T12:31:21.611Z,5.63
2022-10-17T12:34:03.168Z,6.27
2022-10-17T12:36:34.829Z,5.47
2022-10-17T12:39:11.528Z,5.37
2022-10-17T12:41:44.716Z,5.97
2022-10-17T12:44:21.943Z,5.07
2022-10-17T12:47:05.688Z,5.43
2022-10-17T12:49:45.654Z,5.87
2022-10-17T12:52:22.012Z,5.80
2022-10-17T12:55:13.193Z,5.80
2022-10-17T12:57:56.923Z,5.90
2022-10-17T13:01:11.787Z,5.30
2022-10-17T13:03:47.592Z,6.80
2022-10-17T13:06:28.154Z,6.33
2022-10-17T13:09:07.468Z,5.63
2022-10-17T13:11:39.874Z,5.60
2022-10-17T13:14:14.745Z,6.07
2022-10-17T13:16:56.158Z,6.00
2022-10-17T13:19:40.597Z,6.27
2022-10-17T13:22:19.579Z,7.03
2022-10-17T13:24:54.094Z,7.07
2022-10-17T13:27:32.873Z,6.77
2022-10-17T13:30:29.480Z,6.60
2022-10-17T13:33:15.903Z,7.73
2022-10-17T13:36:00.000Z,6.97
2022-10-17T13:38:36.632Z,5.80
2022-10-17T13:41:34.957Z,6.00
2022-10-17T13:44:18.224Z,6.03
2022-10-17T13:46:50.441Z,6.20
2022-10-17T13:49:28.095Z,6.13
2022-10-17T13:52:02.135Z,5.37
2022-10-17T13:54:41.131Z,5.07
2022-10-17T13:57:25.744Z,6.10
2022-10-17T14:00:15.368Z,6.03
2022-10-17T14:02:48.348Z,5.57
2022-10-17T14:05:23.218Z,5.97
2022-10-17T14:08:11.811Z,6.47
2022-10-17T14:10:45.239Z,6.17
2022-10-17T14:13:34.057Z,6.33
2022-10-17T14:16:06.097Z,6.07
2022-10-17T14:18:38.254Z,6.20
2022-10-17T14:24:23.008Z,5.43
2022-10-17T14:26:59.799Z,6.10
2022-10-17T14:29:50.395Z,6.33
2022-10-17T14:32:22.565Z,6.00
2022-10-17T14:35:05.496Z,5.53
2022-10-17T14:37:48.690Z,5.47
2022-10-17T14:40:25.891Z,6.23
2022-10-17T14:42:59.906Z,5.20
2022-10-17T14:45:39.890Z,5.77
2022-10-17T14:48:18.115Z,6.20
2022-10-17T14:51:17.980Z,4.90
2022-10-17T14:54:05.633Z,5.07
2022-10-17T14:56:41.460Z,5.00
2022-10-17T14:59:30.080Z,5.13
2022-10-17T15:02:09.792Z,5.27
2022-10-17T15:04:41.887Z,4.47
2022-10-17T15:07:17.743Z,5.13
2022-10-17T15:09:50.918Z,5.20
2022-10-17T15:12:25.182Z,5.50
2022-10-17T15:14:57.322Z,5.03
2022-10-17T15:17:31.230Z,5.20
2022-10-17T15:20:03.185Z,6.10
2022-10-17T15:22:36.529Z,6.13
2022-10-17T15:25:08.834Z,6.30
2022-10-17T15:27:40.552Z,5.93
2022-10-17T15:30:21.962Z,5.83
2022-10-17T15:32:54.320Z,5.53
2022-10-17T15:35:27.141Z,5.57
2022-10-17T15:37:58.978Z,6.53
2022-10-17T15:40:30.860Z,6.20
2022-10-17T15:43:02.776Z,5.73
2022-10-17T15:45:35.824Z,6.77
2022-10-17T15:48:08.121Z,6.87
2022-10-17T15:50:39.893Z,7.13
2022-10-17T15:53:12.362Z,6.17
2022-10-17T15:55:44.155Z,6.73
2022-10-17T15:58:16.582Z,6.67
2022-10-17T16:00:48.748Z,6.47
2022-10-17T16:05:57.584Z,6.43
2022-10-17T16:08:29.353Z,6.37
2022-10-17T16:11:01.069Z,6.30
2022-10-17T16:13:32.997Z,6.33
2022-10-17T16:16:04.918Z,6.60
2022-10-17T16:18:36.673Z,6.13
2022-10-17T16:21:14.283Z,6.90
2022-10-17T16:23:46.072Z,6.27
2022-10-17T16:26:18.063Z,7.00
2022-10-17T16:28:49.841Z,6.33
2022-10-17T16:31:28.566Z,6.40
2022-10-17T16:34:02.209Z,8.90
2022-10-17T16:36:33.912Z,7.37
2022-10-17T16:39:06.354Z,7.67
2022-10-17T16:41:39.339Z,6.33
2022-10-17T16:44:14.475Z,7.10
2022-10-17T16:46:47.187Z,6.97
2022-10-17T16:49:18.935Z,6.10
2022-10-17T16:51:50.668Z,6.37
2022-10-17T16:54:22.366Z,6.80
2022-10-17T16:56:54.253Z,8.03
2022-10-17T16:59:26.199Z,7.43
2022-10-17T17:01:57.932Z,8.03
2022-10-17T17:04:30.372Z,8.00
2022-10-17T17:07:02.165Z,8.30
2022-10-17T17:09:33.873Z,9.70
2022-10-17T17:12:06.012Z,8.37
2022-10-17T17:14:39.204Z,8.43
2022-10-17T17:17:19.426Z,8.30
2022-10-17T17:20:02.295Z,8.83
2022-10-17T17:22:34.807Z,8.83
2022-10-17T17:25:06.910Z,9.47
2022-10-17T17:27:38.707Z,9.60
2022-10-17T17:30:11.014Z,9.20
2022-10-17T17:32:42.743Z,8.60
2022-10-17T17:35:14.559Z,9.13
2022-10-17T17:37:46.254Z,8.93
2022-10-17T17:40:17.953Z,9.27
2022-10-17T17:42:49.785Z,8.93
2022-10-17T17:45:21.534Z,8.57
2022-10-17T17:47:54.004Z,9.10
2022-10-17T17:50:25.769Z,9.50
2022-10-17T17:52:57.498Z,9.93
2022-10-17T17:55:29.233Z,9.87
2022-10-17T17:58:01.194Z,9.30
2022-10-17T18:00:33.214Z,10.27
2022-10-17T18:03:05.244Z,10.47
2022-10-17T18:05:39.657Z,9.87
2022-10-17T18:08:11.403Z,10.43
2022-10-17T18:10:54.385Z,8.97
2022-10-17T18:13:26.629Z,9.17
2022-10-17T18:16:00.414Z,9.00
2022-10-17T18:18:32.092Z,8.40
2022-10-17T18:21:03.912Z,8.33
2022-10-17T18:23:45.130Z,8.00
2022-10-17T18:26:17.381Z,10.10
2022-10-17T18:28:50.268Z,11.47
2022-10-17T18:31:26.281Z,11.07
2022-10-17T18:34:02.553Z,10.33
2022-10-17T18:36:35.128Z,11.07
2022-10-17T18:39:06.994Z,10.77
2022-10-17T18:41:38.903Z,11.10
2022-10-17T18:44:12.604Z,9.77
2022-10-17T18:49:19.466Z,10.53
2022-10-17T18:51:51.628Z,10.03
2022-10-17T18:54:24.369Z,9.60
2022-10-17T18:56:56.497Z,9.77
2022-10-17T18:59:28.334Z,9.50
2022-10-17T19:02:00.586Z,9.70
2022-10-17T19:04:32.417Z,9.73
2022-10-17T19:07:04.149Z,9.10
2022-10-17T19:09:35.890Z,9.97
2022-10-17T19:12:07.631Z,9.37
2022-10-17T19:14:39.467Z,9.90
2022-10-17T19:17:11.195Z,10.27
2022-10-17T19:19:43.067Z,10.87
2022-10-17T19:22:15.028Z,10.70
2022-10-17T19:24:46.910Z,10.30
2022-10-17T19:27:20.268Z,10.97
2022-10-17T19:29:52.100Z,9.57
2022-10-17T19:32:23.798Z,10.73
2022-10-17T19:34:56.085Z,9.93
2022-10-17T19:37:28.054Z,10.17
2022-10-17T19:40:00.017Z,10.97
2022-10-17T19:42:32.525Z,10.40
2022-10-17T19:45:05.357Z,13.03
2022-10-17T19:47:38.401Z,11.00
2022-10-17T19:50:10.223Z,11.23
2022-10-17T19:52:41.914Z,10.77
2022-10-17T19:55:13.696Z,10.80
2022-10-17T19:57:45.391Z,9.97
2022-10-17T20:00:17.151Z,9.87
2022-10-17T20:02:48.826Z,9.87
2022-10-17T20:05:23.608Z,9.33
2022-10-17T20:07:57.696Z,9.00
2022-10-17T20:10:29.466Z,9.43
2022-10-17T20:13:01.333Z,9.63
2022-10-17T20:15:33.172Z,11.20
2022-10-17T20:18:06.329Z,10.47
2022-10-17T20:20:38.099Z,9.37
2022-10-17T20:23:10.352Z,9.30
2022-10-17T20:25:42.336Z,11.40
2022-10-17T20:28:14.284Z,10.07
2022-10-17T20:30:46.486Z,9.80
2022-10-17T20:33:18.171Z,9.20
2022-10-17T20:35:50.366Z,9.53
2022-10-17T20:38:22.205Z,9.70
2022-10-17T20:40:54.014Z,10.57
2022-10-17T20:43:25.768Z,9.37
2022-10-17T20:46:04.568Z,9.27
2022-10-17T20:48:41.864Z,8.00
2022-10-17T20:51:13.791Z,7.60
2022-10-17T20:53:45.735Z,8.93
2022-10-17T20:56:23.739Z,7.57
2022-10-17T20:59:00.273Z,7.70
2022-10-17T21:01:34.003Z,7.87
2022-10-17T21:04:33.342Z,8.63
2022-10-17T21:06:58.551Z,8.53
2022-10-17T21:09:30.602Z,7.33
2022-10-17T21:12:04.958Z,6.57
2022-10-17T21:14:36.679Z,6.17
2022-10-17T21:17:08.472Z,6.70
2022-10-17T21:19:40.199Z,6.43
2022-10-17T21:22:11.939Z,6.70
2022-10-17T21:24:43.664Z,6.17
2022-10-17T21:27:18.794Z,6.40
2022-10-17T21:29:50.622Z,6.20
2022-10-17T21:32:47.281Z,6.40
2022-10-17T21:35:14.151Z,6.40
2022-10-17T21:37:45.843Z,5.87
2022-10-17T21:40:17.605Z,5.80
2022-10-17T21:42:49.294Z,6.03
2022-10-17T21:45:25.781Z,5.90
2022-10-17T21:48:13.651Z,6.43
2022-10-17T21:50:45.555Z,6.43
2022-10-17T21:53:17.257Z,8.07
2022-10-17T21:55:48.954Z,6.77
2022-10-17T21:58:21.646Z,7.30
2022-10-17T22:00:53.478Z,7.63
2022-10-17T22:03:25.202Z,7.80
2022-10-17T22:06:11.738Z,8.03
2022-10-17T22:08:48.818Z,7.13
2022-10-17T22:11:29.742Z,7.37
2022-10-17T22:14:04.584Z,7.80
2022-10-17T22:16:36.405Z,7.37
2022-10-17T22:19:09.192Z,6.77
2022-10-17T22:21:41.173Z,6.40
2022-10-17T22:24:14.821Z,5.97
2022-10-17T22:26:47.254Z,6.20
2022-10-17T22:29:19.302Z,6.13
2022-10-17T22:31:51.074Z,5.67
2022-10-17T22:34:22.857Z,5.70
2022-10-17T22:36:54.721Z,5.00
2022-10-17T22:39:26.423Z,5.30
2022-10-17T22:41:58.142Z,5.07
2022-10-17T22:44:29.867Z,5.30
2022-10-17T22:47:01.554Z,5.50
2022-10-17T22:49:33.692Z,5.47
2022-10-17T22:52:05.491Z,6.10
2022-10-17T22:54:37.198Z,5.87
2022-10-17T22:57:08.892Z,5.17
2022-10-17T22:59:40.804Z,5.27
2022-10-17T23:02:12.507Z,5.83
2022-10-17T23:04:44.213Z,5.20
2022-10-17T23:07:15.909Z,5.00
2022-10-17T23:09:47.659Z,5.43
2022-10-17T23:12:19.405Z,5.50
2022-10-17T23:14:51.361Z,5.57
2022-10-17T23:17:23.131Z,5.47
2022-10-17T23:19:57.635Z,4.87
2022-10-17T23:22:29.976Z,4.70
2022-10-17T23:25:01.952Z,5.47
2022-10-17T23:27:36.681Z,5.50
2022-10-17T23:30:08.743Z,5.17
2022-10-17T23:32:41.266Z,4.67
2022-10-17T23:35:13.038Z,5.60
2022-10-17T23:37:44.804Z,5.60
2022-10-17T23:40:16.681Z,5.43
2022-10-17T23:42:48.421Z,6.77
2022-10-17T23:45:20.440Z,6.30
2022-10-17T23:47:52.184Z,6.03
2022-10-17T23:50:23.951Z,6.30
2022-10-17T23:52:55.662Z,6.27
2022-10-17T23:55:27.368Z,5.83
2022-10-17T23:57:59.077Z,6.13
